Time;durP1;ratioP1;P1;durP2;ratioP2;P2;SDS_P1;SDS_P2;PMS_P1;PMS_P2;Temp;Humidity;BMP_temperature;BMP_pressure;BME280_temperature;BME280_humidity;BME280_pressure;Samples;Min_cycle;Max_cycle;Signal;HPM_P1;HPM_P2
2021/12/10 00:00:35;;;;;;;36.30;13.53;;;1.70;99.90;;;;;;5011472;28;20050;-67
2021/12/10 00:03:06;;;;;;;32.60;13.90;;;1.70;99.90;;;;;;5011459;28;20085;-68
2021/12/10 00:05:38;;;;;;;33.30;13.47;;;1.70;99.90;;;;;;5011171;28;20068;-66
2021/12/10 00:08:07;;;;;;;31.30;13.77;;;1.80;99.90;;;;;;5011456;28;20050;-67
2021/12/10 00:10:37;;;;;;;32.80;14.07;;;1.80;99.90;;;;;;5011258;28;20136;-66
2021/12/10 00:13:08;;;;;;;40.80;14.53;;;1.80;99.90;;;;;;5011532;28;20493;-66
2021/12/10 00:15:36;;;;;;;33.40;13.90;;;1.80;99.90;;;;;;5010564;28;20050;-67
2021/12/10 00:18:06;;;;;;;35.17;14.73;;;1.80;99.90;;;;;;5011069;28;20406;-66
2021/12/10 00:20:36;;;;;;;37.53;15.00;;;1.80;99.90;;;;;;5011105;28;20070;-65
2021/12/10 00:23:08;;;;;;;32.97;14.27;;;1.80;99.90;;;;;;5011450;28;20053;-66
2021/12/10 00:25:39;;;;;;;30.37;13.67;;;1.90;99.90;;;;;;5010761;28;20072;-66
2021/12/10 00:28:15;;;;;;;32.97;14.80;;;1.90;99.90;;;;;;5011018;28;20399;-68
2021/12/10 00:30:56;;;;;;;39.53;16.30;;;1.90;99.90;;;;;;5010430;28;20242;-65
2021/12/10 00:33:25;;;;;;;38.70;15.00;;;1.90;99.90;;;;;;5011357;28;20104;-67
2021/12/10 00:35:55;;;;;;;36.13;14.90;;;1.90;99.90;;;;;;5010327;28;20101;-66
2021/12/10 00:38:23;;;;;;;38.57;15.10;;;1.80;99.90;;;;;;5011671;28;20054;-66
2021/12/10 00:40:51;;;;;;;30.90;14.30;;;1.80;99.90;;;;;;5023189;28;20054;-68
2021/12/10 00:43:18;;;;;;;37.00;15.07;;;1.80;99.90;;;;;;5028699;28;20050;-69
2021/12/10 00:45:45;;;;;;;33.93;14.73;;;1.80;99.90;;;;;;5017465;28;20466;-65
2021/12/10 00:48:12;;;;;;;34.10;15.57;;;1.80;99.90;;;;;;5011459;28;20046;-66
2021/12/10 00:50:46;;;;;;;36.30;16.03;;;1.80;99.90;;;;;;5010511;28;20103;-66
2021/12/10 00:53:15;;;;;;;29.37;14.00;;;1.80;99.90;;;;;;5011221;28;20085;-66
2021/12/10 00:55:42;;;;;;;34.03;15.03;;;1.80;99.90;;;;;;5010169;28;20104;-68
2021/12/10 00:58:09;;;;;;;34.40;14.67;;;1.80;99.90;;;;;;5011169;28;20104;-66
2021/12/10 01:00:40;;;;;;;40.53;15.13;;;1.80;99.90;;;;;;5011063;28;20104;-66
2021/12/10 01:03:09;;;;;;;32.53;13.33;;;1.80;99.90;;;;;;5010446;28;20046;-67
2021/12/10 01:05:38;;;;;;;43.43;16.50;;;1.80;99.90;;;;;;5010210;28;20108;-66
2021/12/10 01:08:06;;;;;;;31.97;14.17;;;1.80;99.90;;;;;;5010853;28;20066;-66
2021/12/10 01:10:37;;;;;;;33.43;14.23;;;1.80;99.90;;;;;;5010174;28;20050;-68
2021/12/10 01:13:10;;;;;;;32.07;15.23;;;1.80;99.90;;;;;;5010752;28;20054;-66
2021/12/10 01:15:50;;;;;;;31.00;14.53;;;1.80;99.90;;;;;;5010314;28;20132;-68
2021/12/10 01:24:07;;;;;;;37.47;14.20;;;1.80;99.90;;;;;;5009040;28;20042;-66
2021/12/10 01:26:54;;;;;;;31.07;14.23;;;1.90;99.90;;;;;;5009893;28;20058;-66
2021/12/10 01:29:24;;;;;;;21.73;10.52;;;1.90;99.90;;;;;;5010041;28;20502;-67
2021/12/10 01:31:53;;;;;;;29.40;14.93;;;1.80;99.90;;;;;;5010264;28;20081;-67
2021/12/10 01:34:20;;;;;;;34.23;14.50;;;1.80;99.90;;;;;;5010304;28;20092;-66
2021/12/10 01:36:48;;;;;;;29.00;13.30;;;1.90;99.90;;;;;;5009587;28;20054;-68
2021/12/10 01:39:23;;;;;;;32.70;13.47;;;1.90;99.90;;;;;;5010293;28;20030;-66
2021/12/10 01:41:59;;;;;;;32.27;13.13;;;1.90;99.90;;;;;;5010996;28;20054;-66
2021/12/10 01:44:30;;;;;;;35.67;12.87;;;1.90;99.90;;;;;;5014021;28;20077;-68
2021/12/10 01:47:01;;;;;;;32.77;13.33;;;1.80;99.90;;;;;;5013625;28;20319;-66
2021/12/10 01:49:28;;;;;;;37.97;15.07;;;1.80;99.90;;;;;;5013754;28;20054;-67
2021/12/10 01:51:56;;;;;;;28.47;13.33;;;1.80;99.90;;;;;;5013672;28;20573;-67
2021/12/10 01:54:26;;;;;;;32.17;13.67;;;1.90;99.90;;;;;;5012948;28;20108;-67
2021/12/10 01:56:57;;;;;;;28.10;13.40;;;1.80;99.90;;;;;;5013155;28;20580;-66
2021/12/10 01:59:26;;;;;;;29.00;13.27;;;1.80;99.90;;;;;;5013775;28;20053;-66
2021/12/10 02:01:57;;;;;;;30.73;13.63;;;1.80;99.90;;;;;;5013222;28;20100;-66
2021/12/10 02:04:28;;;;;;;28.17;13.33;;;1.90;99.90;;;;;;5012982;28;20415;-67
2021/12/10 02:06:56;;;;;;;28.37;13.03;;;1.90;99.90;;;;;;5012535;28;20108;-68
2021/12/10 02:09:23;;;;;;;31.50;14.13;;;1.90;99.90;;;;;;5014071;28;20050;-66
2021/12/10 02:11:51;;;;;;;38.50;14.30;;;1.90;99.90;;;;;;5013635;28;20056;-67
2021/12/10 02:14:21;;;;;;;29.23;13.67;;;1.90;99.90;;;;;;5013572;28;20111;-66
2021/12/10 02:16:50;;;;;;;27.33;13.17;;;1.90;99.90;;;;;;5013445;28;20490;-67
2021/12/10 02:19:19;;;;;;;33.17;14.53;;;1.90;99.90;;;;;;5013689;28;20046;-66
2021/12/10 02:21:47;;;;;;;37.67;12.80;;;1.90;99.90;;;;;;5013463;28;20110;-66
2021/12/10 02:24:14;;;;;;;33.23;13.07;;;1.90;99.90;;;;;;5013177;28;20057;-66
2021/12/10 02:26:44;;;;;;;26.73;12.47;;;1.90;99.90;;;;;;5012897;28;20054;-67
2021/12/10 02:29:12;;;;;;;31.83;13.17;;;1.90;99.90;;;;;;5013279;28;20052;-66
2021/12/10 02:31:40;;;;;;;34.73;13.23;;;1.90;99.90;;;;;;5013133;28;20092;-66
2021/12/10 02:34:08;;;;;;;25.77;11.70;;;1.90;99.90;;;;;;5013692;28;20060;-66
2021/12/10 02:36:39;;;;;;;37.67;14.03;;;1.90;99.90;;;;;;5012404;28;20050;-68
2021/12/10 02:39:09;;;;;;;33.37;14.23;;;1.90;99.90;;;;;;5013336;28;20172;-66
2021/12/10 02:41:36;;;;;;;32.23;13.87;;;1.90;99.90;;;;;;5013313;28;20046;-66
2021/12/10 02:44:05;;;;;;;29.10;14.00;;;2.00;99.90;;;;;;5013644;28;20085;-67
2021/12/10 02:46:32;;;;;;;27.00;13.17;;;1.90;99.90;;;;;;5012763;28;20054;-67
2021/12/10 02:48:59;;;;;;;29.10;13.97;;;1.90;99.90;;;;;;5014373;28;20050;-67
2021/12/10 02:51:27;;;;;;;34.00;14.07;;;1.90;99.90;;;;;;5014782;28;20046;-68
2021/12/10 02:53:55;;;;;;;30.27;13.50;;;1.90;99.90;;;;;;5012095;28;20096;-68
2021/12/10 02:56:24;;;;;;;27.83;13.80;;;1.90;99.90;;;;;;5011739;28;20054;-66
2021/12/10 02:58:54;;;;;;;30.43;14.90;;;1.90;99.90;;;;;;5012286;28;20489;-67
2021/12/10 03:01:26;;;;;;;24.27;12.07;;;2.00;99.90;;;;;;5012767;28;20045;-67
2021/12/10 03:03:53;;;;;;;34.80;14.03;;;1.90;99.90;;;;;;5012519;28;20054;-66
2021/12/10 03:06:20;;;;;;;31.07;13.90;;;1.90;99.90;;;;;;5011127;28;20498;-67
2021/12/10 03:08:50;;;;;;;30.47;13.50;;;1.90;99.90;;;;;;5012334;28;20100;-66
2021/12/10 03:11:21;;;;;;;30.20;13.27;;;1.90;99.90;;;;;;5012112;28;20125;-67
2021/12/10 03:13:50;;;;;;;33.73;13.50;;;2.00;99.90;;;;;;5012284;28;20053;-66
2021/12/10 03:16:17;;;;;;;27.97;13.80;;;2.00;99.90;;;;;;5012945;28;20088;-67
2021/12/10 03:18:45;;;;;;;32.63;14.83;;;2.00;99.90;;;;;;5012584;28;20053;-67
2021/12/10 03:21:13;;;;;;;29.73;14.20;;;2.00;99.90;;;;;;5031607;22;20498;-69
2021/12/10 03:23:44;;;;;;;33.30;14.03;;;2.00;99.90;;;;;;5012498;28;20045;-68
2021/12/10 03:26:12;;;;;;;34.43;16.13;;;1.90;99.90;;;;;;5011163;28;20053;-68
2021/12/10 03:28:40;;;;;;;36.30;15.47;;;1.90;99.90;;;;;;5011442;28;20460;-68
2021/12/10 03:31:09;;;;;;;35.80;14.27;;;1.90;99.90;;;;;;5011504;28;20600;-68
2021/12/10 03:33:39;;;;;;;33.27;15.60;;;1.90;99.90;;;;;;5011637;28;20058;-68
2021/12/10 03:36:07;;;;;;;31.77;13.97;;;1.90;99.90;;;;;;5011317;28;20092;-69
2021/12/10 03:38:34;;;;;;;34.50;16.03;;;1.90;99.90;;;;;;5011755;28;20092;-68
2021/12/10 03:41:01;;;;;;;36.77;16.20;;;1.90;99.90;;;;;;5011149;28;20049;-68
2021/12/10 03:43:29;;;;;;;33.23;14.97;;;1.90;99.90;;;;;;5011439;28;20080;-68
2021/12/10 03:45:58;;;;;;;38.57;17.13;;;1.90;99.90;;;;;;5010730;28;20552;-68
2021/12/10 03:48:30;;;;;;;42.93;18.73;;;1.90;99.90;;;;;;5011240;28;20501;-68
2021/12/10 03:50:59;;;;;;;37.97;17.30;;;1.90;99.90;;;;;;5011339;28;20501;-68
2021/12/10 03:53:26;;;;;;;51.57;18.57;;;1.90;99.90;;;;;;5011243;28;20046;-68
2021/12/10 03:56:00;;;;;;;49.53;19.00;;;1.80;99.90;;;;;;5010514;28;20085;-68
2021/12/10 03:58:27;;;;;;;38.60;18.30;;;1.80;99.90;;;;;;5011406;28;20088;-68
2021/12/10 04:00:57;;;;;;;39.57;17.87;;;1.80;99.90;;;;;;5007530;28;20623;-68
2021/12/10 04:03:30;;;;;;;35.53;16.67;;;1.90;99.90;;;;;;5004387;28;20050;-68
2021/12/10 04:05:58;;;;;;;42.90;18.50;;;1.90;99.90;;;;;;5009208;28;20049;-68
2021/12/10 04:08:25;;;;;;;39.53;17.30;;;1.90;99.90;;;;;;5010531;28;20054;-68
2021/12/10 04:10:54;;;;;;;38.03;17.10;;;1.90;99.90;;;;;;5006904;28;20100;-69
2021/12/10 04:13:22;;;;;;;47.27;18.37;;;1.90;99.90;;;;;;5005485;28;20045;-68
2021/12/10 04:15:49;;;;;;;37.87;16.47;;;1.90;99.90;;;;;;5009665;28;20053;-68
2021/12/10 04:18:17;;;;;;;40.03;17.07;;;1.90;99.90;;;;;;5010190;28;20057;-68
2021/12/10 04:20:47;;;;;;;42.33;15.97;;;1.80;99.90;;;;;;5007786;28;20058;-68
2021/12/10 04:23:17;;;;;;;36.63;16.63;;;1.80;99.90;;;;;;4996307;28;20112;-68
2021/12/10 04:25:44;;;;;;;45.67;18.40;;;1.80;99.90;;;;;;5009631;28;20050;-68
2021/12/10 04:28:16;;;;;;;42.10;17.17;;;1.80;99.90;;;;;;5010196;28;20124;-68
2021/12/10 04:30:45;;;;;;;35.57;17.17;;;1.80;99.90;;;;;;5009933;28;20050;-68
2021/12/10 04:33:15;;;;;;;41.40;17.37;;;1.80;99.90;;;;;;5009717;28;20089;-68
2021/12/10 04:35:45;;;;;;;39.20;17.37;;;1.80;99.90;;;;;;5010707;28;20135;-68
2021/12/10 04:38:13;;;;;;;49.93;17.13;;;1.80;99.90;;;;;;5010060;28;20502;-68
2021/12/10 04:40:40;;;;;;;40.23;18.63;;;1.80;99.90;;;;;;5010040;28;20092;-68
2021/12/10 04:43:08;;;;;;;38.50;17.17;;;1.80;99.90;;;;;;5010108;28;20100;-68
2021/12/10 04:45:35;;;;;;;37.37;16.50;;;1.80;99.90;;;;;;5008891;28;20100;-68
2021/12/10 04:48:02;;;;;;;37.87;17.77;;;1.90;99.90;;;;;;5009830;28;20049;-68
2021/12/10 04:50:30;;;;;;;31.73;15.70;;;1.90;99.90;;;;;;5009665;28;20115;-68
2021/12/10 04:52:59;;;;;;;40.37;17.20;;;1.90;99.90;;;;;;5013913;28;20053;-68
2021/12/10 04:55:28;;;;;;;35.73;15.03;;;1.90;99.90;;;;;;5026310;28;20053;-68
2021/12/10 04:57:55;;;;;;;34.53;15.07;;;1.90;99.90;;;;;;5017012;28;20096;-68
2021/12/10 05:00:26;;;;;;;37.60;15.83;;;1.90;99.90;;;;;;5009756;28;20054;-68
2021/12/10 05:02:53;;;;;;;32.73;15.43;;;1.90;99.90;;;;;;5009570;28;20104;-68
2021/12/10 05:05:20;;;;;;;32.93;14.77;;;1.80;99.90;;;;;;5008600;28;20188;-68
2021/12/10 05:07:48;;;;;;;38.93;15.37;;;1.90;99.90;;;;;;5009466;28;20053;-68
2021/12/10 05:10:19;;;;;;;30.03;15.37;;;1.90;99.90;;;;;;5009606;28;20056;-68
2021/12/10 05:12:47;;;;;;;30.67;14.43;;;1.90;99.90;;;;;;5009333;28;20714;-68
2021/12/10 05:15:18;;;;;;;34.93;13.53;;;1.90;99.90;;;;;;5008585;28;20057;-68
2021/12/10 05:17:48;;;;;;;34.40;15.00;;;1.90;99.90;;;;;;5009303;28;20132;-68
2021/12/10 05:20:18;;;;;;;31.77;14.30;;;1.90;99.90;;;;;;5009533;28;20056;-68
2021/12/10 05:22:48;;;;;;;28.20;12.80;;;1.90;99.90;;;;;;5009338;28;20502;-68
2021/12/10 05:25:18;;;;;;;38.63;14.77;;;1.80;99.90;;;;;;5008531;28;20494;-68
2021/12/10 05:27:46;;;;;;;32.73;14.47;;;1.80;99.90;;;;;;5009641;28;20112;-68
2021/12/10 05:30:17;;;;;;;33.80;14.70;;;1.80;99.90;;;;;;5009225;28;20054;-68
2021/12/10 05:32:44;;;;;;;29.77;13.70;;;1.80;99.90;;;;;;5009190;28;20112;-68
2021/12/10 05:35:12;;;;;;;28.97;14.90;;;1.70;99.90;;;;;;5008726;28;20092;-68
2021/12/10 05:37:39;;;;;;;30.57;12.60;;;1.60;99.90;;;;;;5009534;28;20124;-68
2021/12/10 05:40:11;;;;;;;38.93;13.40;;;1.70;99.90;;;;;;5015511;28;20049;-68
2021/12/10 05:42:39;;;;;;;29.67;13.37;;;1.60;99.90;;;;;;5031446;28;20112;-69
2021/12/10 05:45:08;;;;;;;36.03;13.40;;;1.60;99.90;;;;;;5015470;28;20568;-68
2021/12/10 05:47:35;;;;;;;30.63;13.57;;;1.70;99.90;;;;;;5009260;28;20050;-68
2021/12/10 05:50:03;;;;;;;31.53;14.33;;;1.60;99.90;;;;;;5009251;28;20134;-68
2021/12/10 05:52:30;;;;;;;32.77;13.57;;;1.60;99.90;;;;;;5008747;28;20096;-68
2021/12/10 05:54:57;;;;;;;38.37;14.63;;;1.60;99.90;;;;;;5008791;28;20076;-68
2021/12/10 05:57:24;;;;;;;28.67;12.33;;;1.70;99.90;;;;;;5009229;28;20054;-68
2021/12/10 05:59:52;;;;;;;32.27;13.73;;;1.70;99.90;;;;;;5009069;28;20050;-68
2021/12/10 06:02:19;;;;;;;37.13;14.23;;;1.70;99.90;;;;;;5009124;28;20418;-68
2021/12/10 06:04:46;;;;;;;35.17;15.10;;;1.60;99.90;;;;;;5007953;28;20046;-68
2021/12/10 06:07:13;;;;;;;36.77;13.80;;;1.60;99.90;;;;;;5008830;28;20514;-68
2021/12/10 06:09:40;;;;;;;34.23;13.57;;;1.60;99.90;;;;;;5009054;28;20502;-68
2021/12/10 06:12:08;;;;;;;34.00;13.30;;;1.50;99.90;;;;;;5008806;28;20160;-68
2021/12/10 06:14:35;;;;;;;30.37;13.50;;;1.60;99.90;;;;;;5009609;28;20053;-68
2021/12/10 06:17:04;;;;;;;27.60;12.57;;;1.60;99.90;;;;;;5009879;28;20089;-69
2021/12/10 06:19:31;;;;;;;28.20;12.57;;;1.60;99.90;;;;;;5012242;28;20049;-68
2021/12/10 06:21:58;;;;;;;30.33;13.07;;;1.60;99.90;;;;;;5014566;28;20053;-68
2021/12/10 06:24:26;;;;;;;29.07;12.60;;;1.70;99.90;;;;;;5015056;28;20416;-68
2021/12/10 06:26:53;;;;;;;29.80;13.60;;;1.60;99.90;;;;;;5014975;28;20054;-69
2021/12/10 06:29:22;;;;;;;30.87;12.90;;;1.60;99.90;;;;;;5023676;28;20054;-69
2021/12/10 06:31:49;;;;;;;33.80;14.70;;;1.60;99.90;;;;;;5021223;28;20057;-68
2021/12/10 06:34:18;;;;;;;34.07;13.53;;;1.60;99.90;;;;;;5016836;28;20720;-68
2021/12/10 06:36:45;;;;;;;32.40;13.30;;;1.50;99.90;;;;;;5016592;28;20053;-68
2021/12/10 06:39:12;;;;;;;27.93;12.17;;;1.60;99.90;;;;;;5016528;28;20049;-68
2021/12/10 06:41:39;;;;;;;31.70;13.43;;;1.50;99.90;;;;;;5012884;28;20108;-68
2021/12/10 06:44:06;;;;;;;33.97;12.90;;;1.50;99.90;;;;;;5013333;28;20053;-68
2021/12/10 06:46:33;;;;;;;26.33;12.73;;;1.50;99.90;;;;;;5012235;28;20050;-68
2021/12/10 06:49:00;;;;;;;26.43;12.20;;;1.50;99.90;;;;;;5012547;28;20108;-68
2021/12/10 06:51:29;;;;;;;35.10;12.47;;;1.40;99.90;;;;;;5019113;28;20139;-68
2021/12/10 06:53:56;;;;;;;32.73;13.70;;;1.40;99.90;;;;;;5012268;28;20085;-68
2021/12/10 06:56:23;;;;;;;27.43;11.47;;;1.40;99.90;;;;;;5011799;28;20054;-68
2021/12/10 06:58:50;;;;;;;38.63;15.43;;;1.40;99.90;;;;;;5012165;28;20061;-68
2021/12/10 07:01:22;;;;;;;31.27;13.47;;;1.40;99.90;;;;;;5012867;28;20069;-68
2021/12/10 07:03:50;;;;;;;32.57;13.80;;;1.40;99.90;;;;;;5012383;28;20108;-68
2021/12/10 07:06:18;;;;;;;36.93;13.93;;;1.40;99.90;;;;;;5011710;28;20046;-68
2021/12/10 07:08:47;;;;;;;34.63;13.40;;;1.30;99.90;;;;;;5014078;28;20050;-68
2021/12/10 07:11:16;;;;;;;33.17;13.97;;;1.30;99.90;;;;;;5018005;28;20107;-68
2021/12/10 07:13:45;;;;;;;33.83;13.57;;;1.30;99.90;;;;;;5019337;28;20050;-68
2021/12/10 07:16:14;;;;;;;32.93;13.60;;;1.30;99.90;;;;;;5018368;28;20053;-68
2021/12/10 07:18:41;;;;;;;33.33;14.37;;;1.30;99.90;;;;;;5020398;28;20046;-68
2021/12/10 07:21:08;;;;;;;32.37;13.00;;;1.30;99.90;;;;;;5020111;28;20049;-68
2021/12/10 07:23:37;;;;;;;32.27;14.00;;;1.30;99.90;;;;;;5019718;28;20058;-68
2021/12/10 07:26:06;;;;;;;29.67;13.00;;;1.20;99.90;;;;;;5019082;28;20104;-68
2021/12/10 07:28:33;;;;;;;38.70;13.97;;;1.20;99.90;;;;;;5019609;28;20410;-68
2021/12/10 07:31:01;;;;;;;36.30;14.23;;;1.20;99.90;;;;;;5020324;28;20050;-69
2021/12/10 07:33:28;;;;;;;32.73;14.17;;;1.20;99.90;;;;;;5012983;28;20050;-69
2021/12/10 07:35:56;;;;;;;32.93;14.67;;;1.20;99.90;;;;;;5011091;28;20050;-68
2021/12/10 07:38:23;;;;;;;33.37;13.83;;;1.20;99.90;;;;;;5011805;28;20379;-68
2021/12/10 07:40:51;;;;;;;31.90;13.83;;;1.20;99.90;;;;;;5011019;28;20050;-68
2021/12/10 07:43:20;;;;;;;32.40;14.57;;;1.30;99.90;;;;;;5011037;28;20100;-68
2021/12/10 07:45:49;;;;;;;34.90;14.70;;;1.30;99.90;;;;;;5010613;28;20049;-68
2021/12/10 07:48:19;;;;;;;40.70;15.03;;;1.30;99.90;;;;;;5011454;28;20104;-68
2021/12/10 07:50:53;;;;;;;35.40;14.13;;;1.30;99.90;;;;;;5011250;28;20050;-68
2021/12/10 07:53:20;;;;;;;29.03;13.57;;;1.30;99.90;;;;;;5011199;28;20065;-68
2021/12/10 07:55:48;;;;;;;34.13;14.43;;;1.40;99.90;;;;;;5010331;28;20053;-68
2021/12/10 07:58:15;;;;;;;32.43;13.73;;;1.50;99.90;;;;;;5011151;28;20050;-69
2021/12/10 08:00:47;;;;;;;36.83;13.93;;;1.50;99.90;;;;;;5011237;28;20057;-68
2021/12/10 08:03:15;;;;;;;35.23;14.80;;;1.60;99.90;;;;;;5011125;28;20057;-68
2021/12/10 08:05:42;;;;;;;34.87;14.13;;;1.50;99.90;;;;;;5010263;28;20111;-68
2021/12/10 08:08:10;;;;;;;30.90;14.00;;;1.60;99.90;;;;;;5010914;28;20061;-68
2021/12/10 08:10:39;;;;;;;33.70;14.10;;;1.70;99.90;;;;;;5010529;28;20104;-68
2021/12/10 08:13:07;;;;;;;33.07;13.87;;;1.70;99.90;;;;;;5010605;28;20076;-68
2021/12/10 08:15:34;;;;;;;27.67;12.90;;;1.80;99.90;;;;;;5010153;28;20054;-68
2021/12/10 08:18:03;;;;;;;29.73;13.50;;;1.90;99.90;;;;;;5010881;28;20053;-68
2021/12/10 08:20:31;;;;;;;29.90;13.97;;;2.00;99.90;;;;;;5010468;28;20100;-68
2021/12/10 08:22:58;;;;;;;28.50;12.60;;;2.10;99.90;;;;;;5010921;28;20050;-68
2021/12/10 08:25:27;;;;;;;27.20;12.50;;;2.10;99.90;;;;;;5010002;28;20057;-68
2021/12/10 08:27:55;;;;;;;34.67;13.83;;;2.30;99.90;;;;;;5010717;28;20410;-68
2021/12/10 08:30:24;;;;;;;26.87;12.33;;;2.40;99.90;;;;;;5010701;28;20089;-68
2021/12/10 08:32:54;;;;;;;25.70;13.77;;;2.50;99.90;;;;;;5010335;28;20107;-68
2021/12/10 08:35:26;;;;;;;31.37;12.70;;;2.60;99.90;;;;;;5009910;28;20521;-68
2021/12/10 08:37:54;;;;;;;30.00;13.77;;;2.60;99.90;;;;;;5010806;28;20054;-68
2021/12/10 08:40:24;;;;;;;28.07;12.60;;;2.70;99.90;;;;;;5010287;28;20429;-68
2021/12/10 08:42:52;;;;;;;25.67;12.70;;;2.60;99.90;;;;;;5010115;28;20053;-68
2021/12/10 08:45:21;;;;;;;28.13;13.07;;;2.60;99.90;;;;;;5010095;28;20053;-68
2021/12/10 08:47:49;;;;;;;28.70;13.77;;;2.60;99.90;;;;;;5010285;28;20124;-68
2021/12/10 08:50:22;;;;;;;32.03;12.77;;;2.40;99.90;;;;;;5010503;28;20050;-68
2021/12/10 08:52:51;;;;;;;30.03;12.70;;;2.10;99.90;;;;;;5009649;28;20050;-68
2021/12/10 08:55:19;;;;;;;31.27;13.87;;;2.00;99.90;;;;;;5009692;28;20085;-68
2021/12/10 08:57:46;;;;;;;28.30;13.40;;;2.00;99.90;;;;;;5010821;28;20054;-68
2021/12/10 09:00:15;;;;;;;35.17;14.37;;;2.00;99.90;;;;;;5010174;28;20480;-68
2021/12/10 09:02:43;;;;;;;28.00;13.10;;;2.00;99.90;;;;;;5010899;28;20061;-68
2021/12/10 09:05:12;;;;;;;28.43;14.63;;;1.90;99.90;;;;;;5010240;28;20049;-68
2021/12/10 09:07:43;;;;;;;28.80;13.63;;;1.90;99.90;;;;;;5010785;28;20146;-69
2021/12/10 09:10:13;;;;;;;32.30;15.13;;;2.00;99.90;;;;;;5029876;28;20114;-69
2021/12/10 09:12:41;;;;;;;35.17;15.37;;;2.00;99.90;;;;;;5023718;28;20241;-68
2021/12/10 09:15:11;;;;;;;30.67;14.37;;;2.10;99.90;;;;;;5010317;28;20050;-68
2021/12/10 09:17:41;;;;;;;31.33;13.87;;;2.00;99.90;;;;;;5010597;28;20116;-68
2021/12/10 09:22:58;;;;;;;33.20;14.13;;;2.00;99.90;;;;;;5056476;22;20416;-74
2021/12/10 09:25:27;;;;;;;33.53;15.13;;;2.00;99.90;;;;;;5017206;28;20083;-74
2021/12/10 09:27:55;;;;;;;37.20;13.80;;;2.00;99.90;;;;;;5014290;28;20402;-73
2021/12/10 09:30:25;;;;;;;29.90;13.40;;;1.70;99.90;;;;;;5012863;28;20505;-73
2021/12/10 09:32:52;;;;;;;37.17;14.33;;;1.70;99.90;;;;;;5012743;28;20061;-74
2021/12/10 09:35:22;;;;;;;33.47;15.67;;;1.70;99.90;;;;;;5011669;28;20054;-74
2021/12/10 09:37:49;;;;;;;30.37;14.40;;;1.80;99.90;;;;;;5014622;28;20057;-73
2021/12/10 09:40:20;;;;;;;25.43;12.13;;;1.90;99.90;;;;;;5015807;28;20323;-73
2021/12/10 09:42:49;;;;;;;25.07;11.77;;;1.90;99.90;;;;;;5013176;28;20104;-74
2021/12/10 09:45:20;;;;;;;25.13;10.70;;;2.00;99.90;;;;;;5011711;28;20046;-74
2021/12/10 09:47:47;;;;;;;24.23;9.60;;;2.00;99.90;;;;;;5011089;28;20058;-75
2021/12/10 09:50:15;;;;;;;19.07;8.33;;;2.00;99.90;;;;;;5012299;28;20061;-74
2021/12/10 09:52:43;;;;;;;20.70;8.50;;;1.90;99.90;;;;;;5011293;28;20050;-74
2021/12/10 09:55:14;;;;;;;15.60;7.37;;;2.10;99.90;;;;;;5011966;28;20073;-74
2021/12/10 09:57:43;;;;;;;23.47;8.73;;;2.00;99.90;;;;;;5011444;28;20088;-75
2021/12/10 10:00:17;;;;;;;16.03;7.40;;;2.00;99.90;;;;;;5011209;28;20103;-75
2021/12/10 10:02:45;;;;;;;18.60;7.87;;;1.90;99.90;;;;;;5010524;28;20058;-73
2021/12/10 10:05:12;;;;;;;16.70;8.57;;;2.10;99.90;;;;;;5015108;28;20046;-74
2021/12/10 10:07:39;;;;;;;21.37;8.77;;;2.20;99.90;;;;;;5015505;28;20058;-74
2021/12/10 10:10:09;;;;;;;18.20;7.80;;;2.40;99.90;;;;;;5015987;28;20089;-73
2021/12/10 10:12:41;;;;;;;19.33;8.07;;;2.20;99.90;;;;;;5015026;28;20239;-75
2021/12/10 10:15:17;;;;;;;19.53;8.53;;;2.10;99.90;;;;;;5014200;28;20057;-76
2021/12/10 10:17:44;;;;;;;18.60;7.77;;;2.80;99.90;;;;;;5017174;28;20053;-75
2021/12/10 10:20:14;;;;;;;17.13;7.90;;;3.60;99.90;;;;;;5015357;28;20050;-75
2021/12/10 10:22:44;;;;;;;18.10;7.43;;;3.90;99.90;;;;;;5015280;28;20104;-78
2021/12/10 10:25:12;;;;;;;17.87;8.30;;;3.50;99.90;;;;;;5016905;28;20058;-76
2021/12/10 10:27:43;;;;;;;20.67;8.17;;;3.80;99.90;;;;;;5018498;28;20460;-76
2021/12/10 10:30:16;;;;;;;20.07;7.93;;;5.50;99.90;;;;;;5018181;28;20469;-77
2021/12/10 10:32:45;;;;;;;18.95;6.82;;;5.40;99.90;;;;;;5019199;28;20460;-77
2021/12/10 10:35:18;;;;;;;13.45;6.55;;;7.90;99.90;;;;;;5016649;28;20078;-80
2021/12/10 10:37:46;;;;;;;13.73;6.85;;;8.40;99.90;;;;;;5016552;28;20046;-80
2021/12/10 10:40:16;;;;;;;15.07;7.00;;;9.30;99.90;;;;;;5015815;28;20115;-78
2021/12/10 10:42:44;;;;;;;16.13;7.70;;;9.10;99.90;;;;;;5014984;28;20057;-76
2021/12/10 10:45:20;;;;;;;12.90;6.70;;;9.10;99.90;;;;;;5013262;28;20100;-77
2021/12/10 10:47:48;;;;;;;17.80;7.07;;;10.30;99.90;;;;;;5012871;28;20060;-74
2021/12/10 10:50:17;;;;;;;14.80;7.20;;;9.40;99.90;;;;;;5012390;28;20046;-76
2021/12/10 10:52:47;;;;;;;12.75;7.25;;;8.20;99.90;;;;;;5013436;28;20061;-72
2021/12/10 10:55:24;;;;;;;13.35;6.15;;;8.40;99.90;;;;;;5012327;28;20073;-78
2021/12/10 10:57:56;;;;;;;18.92;7.95;;;9.50;99.90;;;;;;5012782;28;20046;-73
2021/12/10 11:00:32;;;;;;;14.93;7.18;;;8.30;99.90;;;;;;5012877;28;20050;-74
2021/12/10 11:03:04;;;;;;;15.00;6.78;;;9.40;99.90;;;;;;5012480;28;20121;-74
2021/12/10 11:05:34;;;;;;;15.02;7.07;;;11.10;99.90;;;;;;5012327;28;20418;-74
2021/12/10 11:08:04;;;;;;;13.20;6.65;;;9.80;99.90;;;;;;5012764;28;20453;-72
2021/12/10 11:10:35;;;;;;;14.27;6.82;;;9.50;99.90;;;;;;5012749;28;20049;-73
2021/12/10 11:13:14;;;;;;;12.73;6.95;;;9.00;99.90;;;;;;5012278;28;20058;-73
2021/12/10 11:16:03;;;;;;;11.88;6.40;;;8.40;99.90;;;;;;5011955;28;20061;-75
2021/12/10 11:18:42;;;;;;;13.80;6.25;;;7.60;99.90;;;;;;5013182;28;20042;-73
2021/12/10 11:21:10;;;;;;;14.50;6.18;;;7.90;99.90;;;;;;5012783;28;20054;-75
2021/12/10 11:23:39;;;;;;;13.70;6.15;;;7.80;99.90;;;;;;5012550;28;20065;-73
2021/12/10 11:26:07;;;;;;;19.90;6.60;;;9.10;99.90;;;;;;5012374;28;20148;-73
2021/12/10 11:28:37;;;;;;;11.65;6.47;;;9.60;99.90;;;;;;5012807;28;20141;-73
2021/12/10 11:31:09;;;;;;;11.98;5.65;;;10.40;99.90;;;;;;5012636;28;20054;-72
2021/12/10 11:33:39;;;;;;;13.95;5.18;;;10.30;99.90;;;;;;5012275;28;20464;-73
2021/12/10 11:36:09;;;;;;;10.70;4.70;;;8.50;99.90;;;;;;5012096;28;20564;-73
2021/12/10 11:38:37;;;;;;;18.23;6.30;;;7.80;99.90;;;;;;5012485;28;20058;-74
2021/12/10 11:41:08;;;;;;;14.43;5.03;;;7.10;99.90;;;;;;5012482;28;20057;-73
2021/12/10 11:43:56;;;;;;;14.23;6.10;;;5.60;99.90;;;;;;5012544;28;20076;-73
2021/12/10 11:49:28;;;;;;;10.57;5.13;;;4.30;99.90;;;;;;5167175;27;20572;-75
2021/12/10 11:52:01;;;;;;;15.85;5.57;;;4.10;99.90;;;;;;5134650;27;20054;-74
2021/12/10 11:54:35;;;;;;;9.35;4.40;;;4.00;99.90;;;;;;5135454;27;20051;-73
2021/12/10 11:57:11;;;;;;;9.97;4.43;;;3.70;99.90;;;;;;5135412;28;20208;-73
2021/12/10 11:59:41;;;;;;;9.97;4.53;;;3.70;99.90;;;;;;5135239;27;20047;-74
2021/12/10 12:02:10;;;;;;;15.77;4.67;;;3.50;99.90;;;;;;5135436;27;20073;-75
2021/12/10 12:04:44;;;;;;;13.07;5.63;;;3.60;99.90;;;;;;5135259;27;20054;-74
2021/12/10 12:07:29;;;;;;;13.87;5.40;;;3.70;99.90;;;;;;5135193;27;20110;-73
2021/12/10 12:10:01;;;;;;;10.33;4.63;;;4.00;99.90;;;;;;5134574;28;20055;-75
2021/12/10 12:12:37;;;;;;;10.27;4.43;;;4.00;99.90;;;;;;5133597;27;20055;-74
2021/12/10 12:15:24;;;;;;;9.93;4.87;;;4.00;99.90;;;;;;5134434;27;20047;-73
2021/12/10 12:17:52;;;;;;;;;;;4.00;99.90;;;;;;5134166;27;20104;-72
2021/12/10 12:20:41;;;;;;;16.67;4.80;;;4.10;99.90;;;;;;5132207;28;19941;-72
2021/12/10 12:26:01;;;;;;;12.07;4.63;;;4.20;99.90;;;;;;5132378;28;20054;-74
2021/12/10 12:28:28;;;;;;;11.47;5.07;;;4.20;99.90;;;;;;5132361;27;20040;-72
2021/12/10 12:31:03;;;;;;;11.80;5.70;;;4.60;99.90;;;;;;5132435;27;20055;-71
2021/12/10 12:33:33;;;;;;;12.07;5.27;;;4.80;99.90;;;;;;5132858;27;20107;-74
2021/12/10 12:36:12;;;;;;;17.38;6.25;;;5.40;99.90;;;;;;5132176;27;20054;-72
2021/12/10 12:38:44;;;;;;;15.57;5.95;;;5.50;99.90;;;;;;5131558;27;20108;-73
2021/12/10 12:41:16;;;;;;;10.85;5.47;;;6.00;99.90;;;;;;5130331;27;20445;-74
2021/12/10 12:43:46;;;;;;;10.82;4.68;;;6.10;99.90;;;;;;5131204;27;20054;-75
2021/12/10 12:46:14;;;;;;;13.23;4.55;;;5.50;99.90;;;;;;5131975;27;20468;-75
2021/12/10 12:48:56;;;;;;;10.30;4.35;;;5.40;99.90;;;;;;5131968;27;20043;-73
2021/12/10 12:51:25;;;;;;;8.10;4.22;;;4.80;99.90;;;;;;5132552;27;20043;-73
2021/12/10 12:53:53;;;;;;;10.93;4.25;;;4.70;99.90;;;;;;5132366;27;20053;-72
2021/12/10 12:56:23;;;;;;;12.80;4.75;;;4.60;99.90;;;;;;5132245;27;20453;-73
2021/12/10 12:58:53;;;;;;;10.75;4.32;;;4.40;99.90;;;;;;5129570;27;20048;-73
2021/12/10 13:01:24;;;;;;;15.15;5.00;;;4.00;99.90;;;;;;5118553;28;20047;-73
2021/12/10 13:03:54;;;;;;;12.45;5.30;;;4.10;99.90;;;;;;5118281;28;20426;-72
2021/12/10 13:06:26;;;;;;;10.25;4.65;;;4.10;99.90;;;;;;5117670;28;20047;-72